SKBG/BGA METAR and TAF weather

Enter ICAO airport designator
Station Type Date Time Source
SKBG METAR 2020/02/26 05:00 UTC NOAA

SKBG 260500Z 32006KT 9999 SCT012TCU SCT070 21/21 A3004 RMK TCU/S=  METAR SKCC 260500Z VRB02KT 8000 SCT020 SCT070 26/21 A2997 RMK HZ


Station Type Date Time Source
SKBG Decoded METAR 2020/02/26 05:00 UTC NOAA

Bucaramanga / Palonegro, Colombia (SKBG) 07-06N 073-12W
Feb 26, 2020 - 12:00 AM EST / 2020.02.26 0500 UTC
Wind: from the NW (320 degrees) at 7 MPH (6 KT):0
Visibility: greater than 7 mile(s):0
Sky conditions: partly cloudy
Weather: Towering cumulus clouds observed
Temperature: 69 F (21 C)
Dew Point: 69 F (21 C)
Relative Humidity: 100%
Pressure (altimeter): 30.04 in. Hg (1017 hPa)
ob: SKBG 260500Z 32006KT 9999 SCT012TCU SCT070 21/21 A3004 RMK TCU/S=  METAR SKCC 260500Z VRB02KT 8000 SCT020 SCT070 26/21 A2997 RMK HZ
cycle: 5

Station Type Date Time Source
SKBG TAF 2020/02/26 06:42 UTC NOAA

TAF TAF SKBG 260430Z 2606/2706 VRB03KT 9999 SCT015
TEMPO 2606/2612 5000 RADZ BR SCT010CB
BECMG 2615/2617 32008KT
TEMPO 2620/2624 5000 DZRA SCT010TCU BKN070 TX28/2618Z TN18/2610Z

Example: see airport list